sensor_id;sensor_type;location;lat;lon;timestamp;pressure;altitude;pressure_sealevel;temperature;humidity
55456;BME280;63021;52.836;6.376;2023-04-06T00:01:10;102004.72;;;3.11;54.37
55456;BME280;63021;52.836;6.376;2023-04-06T00:03:35;101996.25;;;3.04;54.49
55456;BME280;63021;52.836;6.376;2023-04-06T00:06:01;101991.94;;;3.03;55.29
55456;BME280;63021;52.836;6.376;2023-04-06T00:08:27;101988.56;;;3.00;55.57
55456;BME280;63021;52.836;6.376;2023-04-06T00:10:52;101973.41;;;2.86;54.79
55456;BME280;63021;52.836;6.376;2023-04-06T00:13:17;101982.03;;;2.89;55.20
55456;BME280;63021;52.836;6.376;2023-04-06T00:15:43;101982.44;;;2.80;55.29
55456;BME280;63021;52.836;6.376;2023-04-06T00:18:09;101980.88;;;2.76;55.04
55456;BME280;63021;52.836;6.376;2023-04-06T00:20:34;101972.47;;;2.68;55.26
55456;BME280;63021;52.836;6.376;2023-04-06T00:23:00;101973.59;;;2.62;55.45
55456;BME280;63021;52.836;6.376;2023-04-06T00:25:25;101978.25;;;2.55;56.43
55456;BME280;63021;52.836;6.376;2023-04-06T00:27:51;101972.44;;;2.49;55.53
55456;BME280;63021;52.836;6.376;2023-04-06T00:30:16;101967.50;;;2.41;55.81
55456;BME280;63021;52.836;6.376;2023-04-06T00:32:42;101967.69;;;2.36;56.16
55456;BME280;63021;52.836;6.376;2023-04-06T00:35:08;101967.97;;;2.30;56.12
55456;BME280;63021;52.836;6.376;2023-04-06T00:37:33;101941.50;;;2.14;56.05
55456;BME280;63021;52.836;6.376;2023-04-06T00:40:00;101964.06;;;2.18;56.19
55456;BME280;63021;52.836;6.376;2023-04-06T00:42:26;101958.19;;;2.13;56.37
55456;BME280;63021;52.836;6.376;2023-04-06T00:44:58;101958.44;;;2.07;57.00
55456;BME280;63021;52.836;6.376;2023-04-06T00:47:24;101955.06;;;2.03;56.95
55456;BME280;63021;52.836;6.376;2023-04-06T00:49:53;101941.41;;;1.95;57.28
55456;BME280;63021;52.836;6.376;2023-04-06T00:52:19;101946.66;;;1.95;57.08
55456;BME280;63021;52.836;6.376;2023-04-06T00:54:45;101938.06;;;1.92;57.26
55456;BME280;63021;52.836;6.376;2023-04-06T00:57:11;101946.91;;;1.89;57.59
55456;BME280;63021;52.836;6.376;2023-04-06T00:59:38;101938.44;;;1.82;57.50
55456;BME280;63021;52.836;6.376;2023-04-06T01:02:04;101941.06;;;1.82;56.76
55456;BME280;63021;52.836;6.376;2023-04-06T01:04:29;101928.25;;;1.75;57.57
55456;BME280;63021;52.836;6.376;2023-04-06T01:06:55;101936.06;;;1.76;56.84
55456;BME280;63021;52.836;6.376;2023-04-06T01:09:22;101923.19;;;1.70;57.17
55456;BME280;63021;52.836;6.376;2023-04-06T01:11:47;101925.75;;;1.71;57.89
55456;BME280;63021;52.836;6.376;2023-04-06T01:14:13;101921.47;;;1.69;56.91
55456;BME280;63021;52.836;6.376;2023-04-06T01:16:39;101912.09;;;1.63;57.23
55456;BME280;63021;52.836;6.376;2023-04-06T01:19:12;101903.50;;;1.60;57.72
55456;BME280;63021;52.836;6.376;2023-04-06T01:21:38;101910.44;;;1.61;57.90
55456;BME280;63021;52.836;6.376;2023-04-06T01:24:05;101903.59;;;1.56;57.22
55456;BME280;63021;52.836;6.376;2023-04-06T01:26:31;101904.47;;;1.57;57.44
55456;BME280;63021;52.836;6.376;2023-04-06T01:28:57;101898.53;;;1.52;57.58
55456;BME280;63021;52.836;6.376;2023-04-06T01:31:23;101897.63;;;1.53;57.88
55456;BME280;63021;52.836;6.376;2023-04-06T01:33:49;101903.91;;;1.49;57.07
55456;BME280;63021;52.836;6.376;2023-04-06T01:36:15;101902.34;;;1.45;58.37
55456;BME280;63021;52.836;6.376;2023-04-06T01:38:40;101893.06;;;1.36;57.81
55456;BME280;63021;52.836;6.376;2023-04-06T01:41:07;101902.53;;;1.40;57.76
55456;BME280;63021;52.836;6.376;2023-04-06T01:43:32;101905.22;;;1.38;58.13
55456;BME280;63021;52.836;6.376;2023-04-06T01:45:58;101899.22;;;1.35;58.52
55456;BME280;63021;52.836;6.376;2023-04-06T01:48:23;101893.31;;;1.30;58.23
55456;BME280;63021;52.836;6.376;2023-04-06T01:50:49;101887.38;;;1.25;58.40
55456;BME280;63021;52.836;6.376;2023-04-06T01:53:14;101884.00;;;1.23;58.09
55456;BME280;63021;52.836;6.376;2023-04-06T01:55:40;101894.41;;;1.24;58.05
55456;BME280;63021;52.836;6.376;2023-04-06T01:58:06;101888.47;;;1.19;57.89
55456;BME280;63021;52.836;6.376;2023-04-06T02:00:31;101890.31;;;1.17;58.20
55456;BME280;63021;52.836;6.376;2023-04-06T02:02:57;101898.25;;;1.15;58.26
55456;BME280;63021;52.836;6.376;2023-04-06T02:05:22;101891.16;;;1.17;58.28
55456;BME280;63021;52.836;6.376;2023-04-06T02:07:48;101887.72;;;1.17;58.34
55456;BME280;63021;52.836;6.376;2023-04-06T02:10:14;101886.84;;;1.16;58.38
55456;BME280;63021;52.836;6.376;2023-04-06T02:12:40;101889.56;;;1.13;58.63
55456;BME280;63021;52.836;6.376;2023-04-06T02:15:06;101881.72;;;1.13;58.75
55456;BME280;63021;52.836;6.376;2023-04-06T02:17:31;101880.03;;;1.12;58.26
55456;BME280;63021;52.836;6.376;2023-04-06T02:19:56;101879.16;;;1.12;58.55
55456;BME280;63021;52.836;6.376;2023-04-06T02:22:22;101867.94;;;1.08;58.50
55456;BME280;63021;52.836;6.376;2023-04-06T02:24:47;101870.69;;;1.05;58.34
55456;BME280;63021;52.836;6.376;2023-04-06T02:27:14;101869.03;;;1.02;58.28
55456;BME280;63021;52.836;6.376;2023-04-06T02:29:39;101868.28;;;0.99;59.18
55456;BME280;63021;52.836;6.376;2023-04-06T02:32:04;101870.91;;;0.99;59.32
55456;BME280;63021;52.836;6.376;2023-04-06T02:34:30;101863.22;;;0.94;58.79
55456;BME280;63021;52.836;6.376;2023-04-06T02:36:55;101865.13;;;0.91;59.45
55456;BME280;63021;52.836;6.376;2023-04-06T02:39:21;101864.38;;;0.87;58.85
55456;BME280;63021;52.836;6.376;2023-04-06T02:41:46;101861.03;;;0.83;58.78
55456;BME280;63021;52.836;6.376;2023-04-06T02:44:11;101860.91;;;0.86;59.81
55456;BME280;63021;52.836;6.376;2023-04-06T02:46:37;101862.72;;;0.84;58.74
55456;BME280;63021;52.836;6.376;2023-04-06T02:49:02;101854.97;;;0.81;58.77
55456;BME280;63021;52.836;6.376;2023-04-06T02:51:28;101863.66;;;0.83;58.46
55456;BME280;63021;52.836;6.376;2023-04-06T02:53:53;101862.00;;;0.81;59.10
55456;BME280;63021;52.836;6.376;2023-04-06T02:56:19;101854.19;;;0.79;59.54
55456;BME280;63021;52.836;6.376;2023-04-06T02:58:46;101855.34;;;0.72;58.55
55456;BME280;63021;52.836;6.376;2023-04-06T03:01:11;101856.25;;;0.71;59.12
55456;BME280;63021;52.836;6.376;2023-04-06T03:03:37;101857.03;;;0.73;58.73
55456;BME280;63021;52.836;6.376;2023-04-06T03:06:03;101838.94;;;0.67;59.01
55456;BME280;63021;52.836;6.376;2023-04-06T03:08:28;101845.81;;;0.69;59.09
55456;BME280;63021;52.836;6.376;2023-04-06T03:10:54;101853.75;;;0.68;59.28
55456;BME280;63021;52.836;6.376;2023-04-06T03:13:20;101852.03;;;0.67;59.83
55456;BME280;63021;52.836;6.376;2023-04-06T03:15:45;101843.38;;;0.65;58.70
55456;BME280;63021;52.836;6.376;2023-04-06T03:18:11;101848.56;;;0.66;59.61
55456;BME280;63021;52.836;6.376;2023-04-06T03:20:36;101847.69;;;0.66;59.04
55456;BME280;63021;52.836;6.376;2023-04-06T03:23:02;101843.44;;;0.63;59.68
55456;BME280;63021;52.836;6.376;2023-04-06T03:25:27;101846.91;;;0.64;59.70
55456;BME280;63021;52.836;6.376;2023-04-06T03:27:52;101835.66;;;0.62;59.83
55456;BME280;63021;52.836;6.376;2023-04-06T03:30:19;101843.50;;;0.62;59.13
55456;BME280;63021;52.836;6.376;2023-04-06T03:32:44;101835.06;;;0.54;59.73
55456;BME280;63021;52.836;6.376;2023-04-06T03:35:10;101845.44;;;0.57;59.88
55456;BME280;63021;52.836;6.376;2023-04-06T03:37:35;101839.38;;;0.55;60.06
55456;BME280;63021;52.836;6.376;2023-04-06T03:40:01;101842.94;;;0.54;59.78
55456;BME280;63021;52.836;6.376;2023-04-06T03:42:27;101839.50;;;0.51;59.34
55456;BME280;63021;52.836;6.376;2023-04-06T03:44:52;101838.59;;;0.52;60.03
55456;BME280;63021;52.836;6.376;2023-04-06T03:47:18;101833.41;;;0.51;59.60
55456;BME280;63021;52.836;6.376;2023-04-06T03:49:43;101831.75;;;0.48;59.70
55456;BME280;63021;52.836;6.376;2023-04-06T03:52:09;101831.75;;;0.48;59.65
55456;BME280;63021;52.836;6.376;2023-04-06T03:54:34;101824.94;;;0.44;60.19
55456;BME280;63021;52.836;6.376;2023-04-06T03:57:00;101812.91;;;0.39;59.83
55456;BME280;63021;52.836;6.376;2023-04-06T03:59:25;101821.53;;;0.42;60.16
55456;BME280;63021;52.836;6.376;2023-04-06T04:01:52;101822.53;;;0.38;60.05
55456;BME280;63021;52.836;6.376;2023-04-06T04:04:17;101820.94;;;0.34;60.40
55456;BME280;63021;52.836;6.376;2023-04-06T04:06:43;101818.38;;;0.32;60.36
55456;BME280;63021;52.836;6.376;2023-04-06T04:09:08;101827.97;;;0.33;60.53
55456;BME280;63021;52.836;6.376;2023-04-06T04:11:34;101828.00;;;0.32;60.28
55456;BME280;63021;52.836;6.376;2023-04-06T04:13:59;101825.53;;;0.27;60.30
55456;BME280;63021;52.836;6.376;2023-04-06T04:16:25;101822.91;;;0.29;60.37
55456;BME280;63021;52.836;6.376;2023-04-06T04:18:50;101826.53;;;0.25;60.64
55456;BME280;63021;52.836;6.376;2023-04-06T04:21:15;101828.22;;;0.26;60.67
55456;BME280;63021;52.836;6.376;2023-04-06T04:23:41;101828.34;;;0.23;60.18
55456;BME280;63021;52.836;6.376;2023-04-06T04:26:06;101819.06;;;0.14;60.50
55456;BME280;63021;52.836;6.376;2023-04-06T04:28:32;101806.91;;;0.11;59.83
55456;BME280;63021;52.836;6.376;2023-04-06T04:30:57;101823.22;;;0.20;60.48
55456;BME280;63021;52.836;6.376;2023-04-06T04:33:23;101821.56;;;0.17;60.11
55456;BME280;63021;52.836;6.376;2023-04-06T04:35:48;101829.41;;;0.17;60.87
55456;BME280;63021;52.836;6.376;2023-04-06T04:38:13;101821.50;;;0.19;60.47
55456;BME280;63021;52.836;6.376;2023-04-06T04:40:39;101818.94;;;0.17;60.61
55456;BME280;63021;52.836;6.376;2023-04-06T04:43:04;101810.53;;;0.09;60.32
55456;BME280;63021;52.836;6.376;2023-04-06T04:45:30;101822.56;;;0.13;60.99
55456;BME280;63021;52.836;6.376;2023-04-06T04:47:55;101812.22;;;0.10;60.61
55456;BME280;63021;52.836;6.376;2023-04-06T04:50:20;101810.47;;;0.10;61.19
55456;BME280;63021;52.836;6.376;2023-04-06T04:52:46;101812.97;;;0.13;60.34
55456;BME280;63021;52.836;6.376;2023-04-06T04:55:11;101813.03;;;0.12;61.09
55456;BME280;63021;52.836;6.376;2023-04-06T04:57:37;101816.50;;;0.12;60.42
55456;BME280;63021;52.836;6.376;2023-04-06T05:00:02;101809.47;;;0.13;61.23
55456;BME280;63021;52.836;6.376;2023-04-06T05:02:28;101807.84;;;0.10;61.02
55456;BME280;63021;52.836;6.376;2023-04-06T05:04:53;101789.78;;;0.03;60.71
55456;BME280;63021;52.836;6.376;2023-04-06T05:07:19;101813.81;;;0.14;60.42
55456;BME280;63021;52.836;6.376;2023-04-06T05:09:46;101810.31;;;0.15;60.17
55456;BME280;63021;52.836;6.376;2023-04-06T05:12:11;101812.84;;;0.16;60.71
55456;BME280;63021;52.836;6.376;2023-04-06T05:14:37;101813.69;;;0.17;60.54
55456;BME280;63021;52.836;6.376;2023-04-06T05:17:02;101806.78;;;0.16;60.62
55456;BME280;63021;52.836;6.376;2023-04-06T05:19:27;101801.63;;;0.13;61.52
55456;BME280;63021;52.836;6.376;2023-04-06T05:21:53;101813.66;;;0.19;60.40
55456;BME280;63021;52.836;6.376;2023-04-06T05:24:18;101811.09;;;0.17;60.63
55456;BME280;63021;52.836;6.376;2023-04-06T05:26:44;101808.41;;;0.19;61.26
55456;BME280;63021;52.836;6.376;2023-04-06T05:29:10;101804.81;;;0.21;61.45
55456;BME280;63021;52.836;6.376;2023-04-06T05:31:36;101816.97;;;0.24;60.81
55456;BME280;63021;52.836;6.376;2023-04-06T05:34:01;101813.44;;;0.25;60.61
55456;BME280;63021;52.836;6.376;2023-04-06T05:36:26;101799.59;;;0.21;61.27
55456;BME280;63021;52.836;6.376;2023-04-06T05:38:52;101806.25;;;0.30;60.61
55456;BME280;63021;52.836;6.376;2023-04-06T05:41:18;101799.16;;;0.33;61.24
55456;BME280;63021;52.836;6.376;2023-04-06T05:43:45;101793.78;;;0.37;61.15
55456;BME280;63021;52.836;6.376;2023-04-06T05:46:11;101800.44;;;0.45;60.92
55456;BME280;63021;52.836;6.376;2023-04-06T05:48:36;101799.38;;;0.51;61.00
55456;BME280;63021;52.836;6.376;2023-04-06T05:51:01;101789.56;;;0.56;60.46
55456;BME280;63021;52.836;6.376;2023-04-06T05:53:31;101791.88;;;0.64;61.09
55456;BME280;63021;52.836;6.376;2023-04-06T05:55:56;101793.34;;;0.71;60.27
55456;BME280;63021;52.836;6.376;2023-04-06T05:58:21;101795.66;;;0.79;60.94
55456;BME280;63021;52.836;6.376;2023-04-06T06:00:47;101791.09;;;0.84;60.26
55456;BME280;63021;52.836;6.376;2023-04-06T06:03:12;101795.81;;;0.98;60.00
55456;BME280;63021;52.836;6.376;2023-04-06T06:05:38;101792.66;;;1.10;60.11
55456;BME280;63021;52.836;6.376;2023-04-06T06:08:03;101773.94;;;1.19;59.83
55456;BME280;63021;52.836;6.376;2023-04-06T06:10:29;101777.75;;;1.33;59.73
55456;BME280;63021;52.836;6.376;2023-04-06T06:12:54;101783.22;;;1.49;60.69
55456;BME280;63021;52.836;6.376;2023-04-06T06:15:20;101783.34;;;1.66;60.06
55456;BME280;63021;52.836;6.376;2023-04-06T06:17:46;101787.88;;;1.83;60.48
55456;BME280;63021;52.836;6.376;2023-04-06T06:20:11;101766.47;;;1.93;59.51
55456;BME280;63021;52.836;6.376;2023-04-06T06:22:37;101776.78;;;2.16;59.98
55456;BME280;63021;52.836;6.376;2023-04-06T06:25:03;101773.59;;;2.29;59.23
55456;BME280;63021;52.836;6.376;2023-04-06T06:27:28;101769.09;;;2.50;60.09
55456;BME280;63021;52.836;6.376;2023-04-06T06:29:54;101762.38;;;2.63;59.95
55456;BME280;63021;52.836;6.376;2023-04-06T06:32:20;101755.66;;;2.75;59.77
55456;BME280;63021;52.836;6.376;2023-04-06T06:34:45;101765.28;;;2.93;59.63
55456;BME280;63021;52.836;6.376;2023-04-06T06:37:10;101761.13;;;3.07;59.86
55456;BME280;63021;52.836;6.376;2023-04-06T06:39:36;101766.56;;;3.21;58.84
55456;BME280;63021;52.836;6.376;2023-04-06T06:42:01;101770.97;;;3.38;59.21
55456;BME280;63021;52.836;6.376;2023-04-06T06:44:27;101775.47;;;3.54;58.53
55456;BME280;63021;52.836;6.376;2023-04-06T06:46:53;101770.34;;;3.68;59.04
55456;BME280;63021;52.836;6.376;2023-04-06T06:49:19;101766.84;;;3.85;59.19
55456;BME280;63021;52.836;6.376;2023-04-06T06:51:45;101752.16;;;3.97;58.59
55456;BME280;63021;52.836;6.376;2023-04-06T06:54:12;101765.09;;;4.18;58.62
55456;BME280;63021;52.836;6.376;2023-04-06T06:56:39;101772.19;;;4.33;58.50
55456;BME280;63021;52.836;6.376;2023-04-06T06:59:05;101763.34;;;4.50;58.03
55456;BME280;63021;52.836;6.376;2023-04-06T07:01:33;101750.75;;;4.55;57.80
55456;BME280;63021;52.836;6.376;2023-04-06T07:03:59;101754.66;;;4.80;57.59
55456;BME280;63021;52.836;6.376;2023-04-06T07:06:25;101745.75;;;4.97;57.74
55456;BME280;63021;52.836;6.376;2023-04-06T07:08:50;101750.75;;;5.17;57.58
55456;BME280;63021;52.836;6.376;2023-04-06T07:11:16;101747.03;;;5.36;56.74
55456;BME280;63021;52.836;6.376;2023-04-06T07:13:42;101746.09;;;5.51;57.17
55456;BME280;63021;52.836;6.376;2023-04-06T07:16:08;101740.69;;;5.69;56.39
55456;BME280;63021;52.836;6.376;2023-04-06T07:18:33;101738.69;;;5.87;57.00
55456;BME280;63021;52.836;6.376;2023-04-06T07:20:59;101741.25;;;6.03;56.10
55456;BME280;63021;52.836;6.376;2023-04-06T07:23:24;101734.09;;;6.19;55.57
55456;BME280;63021;52.836;6.376;2023-04-06T07:25:50;101739.16;;;6.37;56.00
55456;BME280;63021;52.836;6.376;2023-04-06T07:28:17;101733.31;;;6.59;55.80
55456;BME280;63021;52.836;6.376;2023-04-06T07:30:43;101732.03;;;6.79;55.26
55456;BME280;63021;52.836;6.376;2023-04-06T07:33:08;101732.63;;;6.97;54.86
55456;BME280;63021;52.836;6.376;2023-04-06T07:35:34;101729.50;;;7.18;54.69
55456;BME280;63021;52.836;6.376;2023-04-06T07:38:00;101727.41;;;7.36;54.01
55456;BME280;63021;52.836;6.376;2023-04-06T07:40:25;101731.25;;;7.57;53.78
55456;BME280;63021;52.836;6.376;2023-04-06T07:42:52;101727.00;;;7.80;53.73
55456;BME280;63021;52.836;6.376;2023-04-06T07:45:17;101724.94;;;7.97;52.35
55456;BME280;63021;52.836;6.376;2023-04-06T07:47:43;101723.88;;;8.12;51.93
55456;BME280;63021;52.836;6.376;2023-04-06T07:50:09;101724.47;;;8.29;51.97
55456;BME280;63021;52.836;6.376;2023-04-06T07:52:35;101718.28;;;8.41;51.57
55456;BME280;63021;52.836;6.376;2023-04-06T07:55:00;101713.78;;;8.55;51.82
55456;BME280;63021;52.836;6.376;2023-04-06T07:57:26;101708.22;;;8.71;51.44
55456;BME280;63021;52.836;6.376;2023-04-06T07:59:52;101704.53;;;8.84;51.12
55456;BME280;63021;52.836;6.376;2023-04-06T08:02:17;101694.78;;;8.96;50.60
55456;BME280;63021;52.836;6.376;2023-04-06T08:04:43;101700.53;;;9.14;49.89
55456;BME280;63021;52.836;6.376;2023-04-06T08:07:09;101702.13;;;9.28;49.84
55456;BME280;63021;52.836;6.376;2023-04-06T08:09:34;101709.16;;;9.41;50.07
55456;BME280;63021;52.836;6.376;2023-04-06T08:12:00;101720.56;;;9.54;49.50
55456;BME280;63021;52.836;6.376;2023-04-06T08:14:25;101712.22;;;9.59;49.00
55456;BME280;63021;52.836;6.376;2023-04-06T08:16:51;101706.66;;;9.62;49.45
55456;BME280;63021;52.836;6.376;2023-04-06T08:19:16;101705.44;;;9.66;48.87
55456;BME280;63021;52.836;6.376;2023-04-06T08:21:44;101708.50;;;9.73;48.44
55456;BME280;63021;52.836;6.376;2023-04-06T08:24:10;101701.47;;;9.83;49.73
55456;BME280;63021;52.836;6.376;2023-04-06T08:26:35;101710.41;;;9.93;48.20
55456;BME280;63021;52.836;6.376;2023-04-06T08:29:01;101701.81;;;10.01;48.60
55456;BME280;63021;52.836;6.376;2023-04-06T08:31:26;101702.19;;;10.08;47.41
55456;BME280;63021;52.836;6.376;2023-04-06T08:33:52;101707.00;;;10.14;47.52
55456;BME280;63021;52.836;6.376;2023-04-06T08:36:18;101701.44;;;10.17;47.28
55456;BME280;63021;52.836;6.376;2023-04-06T08:38:48;101697.56;;;10.21;47.45
55456;BME280;63021;52.836;6.376;2023-04-06T08:41:14;101692.84;;;10.25;47.45
55456;BME280;63021;52.836;6.376;2023-04-06T08:43:53;101684.75;;;10.26;47.59
55456;BME280;63021;52.836;6.376;2023-04-06T08:46:21;101687.84;;;10.31;46.92
55456;BME280;63021;52.836;6.376;2023-04-06T08:48:47;101684.88;;;10.36;46.51
55456;BME280;63021;52.836;6.376;2023-04-06T08:51:15;101687.28;;;10.39;47.01
55456;BME280;63021;52.836;6.376;2023-04-06T08:53:40;101671.69;;;10.34;46.24
55456;BME280;63021;52.836;6.376;2023-04-06T08:56:07;101669.09;;;10.33;45.67
55456;BME280;63021;52.836;6.376;2023-04-06T08:58:36;101669.75;;;10.36;45.38
55456;BME280;63021;52.836;6.376;2023-04-06T09:01:07;101678.31;;;10.40;45.88
55456;BME280;63021;52.836;6.376;2023-04-06T09:03:37;101680.97;;;10.40;45.80
55456;BME280;63021;52.836;6.376;2023-04-06T09:06:04;101676.63;;;10.39;45.98
55456;BME280;63021;52.836;6.376;2023-04-06T09:08:33;101670.09;;;10.43;46.13
55456;BME280;63021;52.836;6.376;2023-04-06T09:11:03;101674.06;;;10.49;46.29
55456;BME280;63021;52.836;6.376;2023-04-06T09:13:29;101670.53;;;10.48;45.67
55456;BME280;63021;52.836;6.376;2023-04-06T09:16:01;101683.38;;;10.54;45.53
55456;BME280;63021;52.836;6.376;2023-04-06T09:18:28;101672.72;;;10.54;45.30
55456;BME280;63021;52.836;6.376;2023-04-06T09:21:02;101668.69;;;10.60;46.24
55456;BME280;63021;52.836;6.376;2023-04-06T09:23:28;101657.44;;;10.56;45.13
55456;BME280;63021;52.836;6.376;2023-04-06T09:26:13;101672.91;;;10.63;45.15
55456;BME280;63021;52.836;6.376;2023-04-06T09:28:52;101668.50;;;10.73;44.80
55456;BME280;63021;52.836;6.376;2023-04-06T09:31:25;101663.66;;;10.78;44.97
55456;BME280;63021;52.836;6.376;2023-04-06T09:33:52;101660.59;;;10.83;45.15
55456;BME280;63021;52.836;6.376;2023-04-06T09:36:18;101650.56;;;10.86;44.96
55456;BME280;63021;52.836;6.376;2023-04-06T09:38:57;101655.81;;;10.98;44.91
55456;BME280;63021;52.836;6.376;2023-04-06T09:41:33;101656.72;;;11.08;44.35
55456;BME280;63021;52.836;6.376;2023-04-06T09:44:09;101652.56;;;11.15;44.65
55456;BME280;63021;52.836;6.376;2023-04-06T09:46:40;101648.53;;;11.21;44.75
55456;BME280;63021;52.836;6.376;2023-04-06T09:49:07;101640.84;;;11.27;44.48
55456;BME280;63021;52.836;6.376;2023-04-06T09:51:40;101645.38;;;11.37;44.22
55456;BME280;63021;52.836;6.376;2023-04-06T09:54:07;101638.41;;;11.46;44.40
55456;BME280;63021;52.836;6.376;2023-04-06T09:57:04;101643.94;;;11.64;43.28
55456;BME280;63021;52.836;6.376;2023-04-06T10:00:05;101637.00;;;11.72;43.75
55456;BME280;63021;52.836;6.376;2023-04-06T10:07:48;101625.84;;;12.08;43.18
55456;BME280;63021;52.836;6.376;2023-04-06T10:10:16;101621.38;;;12.18;42.79
55456;BME280;63021;52.836;6.376;2023-04-06T10:12:41;101622.50;;;12.25;42.09
55456;BME280;63021;52.836;6.376;2023-04-06T10:15:09;101625.91;;;12.27;42.77
55456;BME280;63021;52.836;6.376;2023-04-06T10:17:46;101613.97;;;12.32;42.53
55456;BME280;63021;52.836;6.376;2023-04-06T10:20:55;101621.53;;;12.36;41.67
55456;BME280;63021;52.836;6.376;2023-04-06T10:23:45;101618.88;;;12.36;41.39
55456;BME280;63021;52.836;6.376;2023-04-06T10:26:15;101620.84;;;12.34;42.27
55456;BME280;63021;52.836;6.376;2023-04-06T10:28:45;101629.84;;;12.33;41.50
55456;BME280;63021;52.836;6.376;2023-04-06T10:31:10;101618.19;;;12.34;42.32
55456;BME280;63021;52.836;6.376;2023-04-06T10:33:36;101625.50;;;12.42;42.26
55456;BME280;63021;52.836;6.376;2023-04-06T10:36:15;101622.53;;;12.45;41.53
55456;BME280;63021;52.836;6.376;2023-04-06T10:38:46;101620.28;;;12.50;41.38
55456;BME280;63021;52.836;6.376;2023-04-06T10:41:12;101625.50;;;12.52;41.18
55456;BME280;63021;52.836;6.376;2023-04-06T10:43:40;101617.19;;;12.55;41.92
55456;BME280;63021;52.836;6.376;2023-04-06T10:46:08;101622.09;;;12.59;41.52
55456;BME280;63021;52.836;6.376;2023-04-06T10:48:42;101608.22;;;12.56;41.57
55456;BME280;63021;52.836;6.376;2023-04-06T10:51:11;101618.19;;;12.63;41.06
55456;BME280;63021;52.836;6.376;2023-04-06T10:53:45;101612.53;;;12.67;42.02
55456;BME280;63021;52.836;6.376;2023-04-06T10:56:13;101612.09;;;12.71;41.70
55456;BME280;63021;52.836;6.376;2023-04-06T10:58:50;101615.22;;;12.76;41.54
55456;BME280;63021;52.836;6.376;2023-04-06T11:01:18;101612.09;;;12.81;41.49
55456;BME280;63021;52.836;6.376;2023-04-06T11:03:56;101608.31;;;12.83;40.16
55456;BME280;63021;52.836;6.376;2023-04-06T11:06:28;101606.75;;;12.81;40.07
55456;BME280;63021;52.836;6.376;2023-04-06T11:08:55;101605.06;;;12.80;39.50
55456;BME280;63021;52.836;6.376;2023-04-06T11:11:23;101608.47;;;12.82;39.37
55456;BME280;63021;52.836;6.376;2023-04-06T11:13:52;101597.63;;;12.83;40.10
55456;BME280;63021;52.836;6.376;2023-04-06T11:16:20;101599.16;;;12.86;40.36
55456;BME280;63021;52.836;6.376;2023-04-06T11:18:53;101598.88;;;12.89;39.65
55456;BME280;63021;52.836;6.376;2023-04-06T11:24:10;101588.34;;;12.88;39.46
55456;BME280;63021;52.836;6.376;2023-04-06T11:26:37;101587.59;;;12.95;40.09
55456;BME280;63021;52.836;6.376;2023-04-06T11:29:03;101589.44;;;13.05;39.84
55456;BME280;63021;52.836;6.376;2023-04-06T11:31:28;101588.69;;;13.12;39.31
55456;BME280;63021;52.836;6.376;2023-04-06T11:33:57;101583.50;;;13.11;38.76
55456;BME280;63021;52.836;6.376;2023-04-06T11:36:27;101573.91;;;13.18;39.73
55456;BME280;63021;52.836;6.376;2023-04-06T11:38:56;101577.41;;;13.18;38.85
55456;BME280;63021;52.836;6.376;2023-04-06T11:41:23;101581.59;;;13.31;39.24
55456;BME280;63021;52.836;6.376;2023-04-06T11:43:54;101579.22;;;13.38;37.88
55456;BME280;63021;52.836;6.376;2023-04-06T11:46:25;101577.78;;;13.43;38.02
55456;BME280;63021;52.836;6.376;2023-04-06T11:48:51;101571.56;;;13.43;37.80
55456;BME280;63021;52.836;6.376;2023-04-06T11:51:27;101551.75;;;13.36;38.15
55456;BME280;63021;52.836;6.376;2023-04-06T11:53:53;101577.13;;;13.59;37.84
55456;BME280;63021;52.836;6.376;2023-04-06T11:56:29;101557.03;;;13.55;38.10
55456;BME280;63021;52.836;6.376;2023-04-06T11:58:58;101576.50;;;13.75;38.14
55456;BME280;63021;52.836;6.376;2023-04-06T12:01:28;101559.88;;;13.72;37.75
55456;BME280;63021;52.836;6.376;2023-04-06T12:03:53;101562.25;;;13.75;37.32
55456;BME280;63021;52.836;6.376;2023-04-06T12:06:19;101555.53;;;13.71;37.03
55456;BME280;63021;52.836;6.376;2023-04-06T12:08:45;101565.47;;;13.78;36.69
55456;BME280;63021;52.836;6.376;2023-04-06T12:11:11;101543.16;;;13.69;36.50
55456;BME280;63021;52.836;6.376;2023-04-06T12:13:37;101549.56;;;13.77;37.26
55456;BME280;63021;52.836;6.376;2023-04-06T12:16:02;101558.84;;;13.82;36.90
55456;BME280;63021;52.836;6.376;2023-04-06T12:18:28;101536.94;;;13.69;36.40
55456;BME280;63021;52.836;6.376;2023-04-06T12:20:54;101563.41;;;13.90;36.60
55456;BME280;63021;52.836;6.376;2023-04-06T12:23:20;101551.47;;;13.84;36.04
55456;BME280;63021;52.836;6.376;2023-04-06T12:25:45;101529.59;;;13.71;36.59
55456;BME280;63021;52.836;6.376;2023-04-06T12:28:13;101558.06;;;13.90;36.69
55456;BME280;63021;52.836;6.376;2023-04-06T12:30:39;101529.91;;;13.68;36.73
55456;BME280;63021;52.836;6.376;2023-04-06T12:33:06;101543.81;;;13.72;37.34
55456;BME280;63021;52.836;6.376;2023-04-06T12:35:36;101569.91;;;13.88;37.60
55456;BME280;63021;52.836;6.376;2023-04-06T12:38:02;101533.28;;;13.70;37.23
55456;BME280;63021;52.836;6.376;2023-04-06T12:40:31;101542.69;;;13.74;36.77
55456;BME280;63021;52.836;6.376;2023-04-06T12:43:01;101533.31;;;13.60;37.06
55456;BME280;63021;52.836;6.376;2023-04-06T12:45:27;101558.75;;;13.74;37.19
55456;BME280;63021;52.836;6.376;2023-04-06T12:47:53;101546.56;;;13.62;37.82
55456;BME280;63021;52.836;6.376;2023-04-06T12:50:18;101565.53;;;13.68;36.94
55456;BME280;63021;52.836;6.376;2023-04-06T12:52:43;101525.97;;;13.44;37.34
55456;BME280;63021;52.836;6.376;2023-04-06T12:55:09;101547.19;;;13.46;36.79
55456;BME280;63021;52.836;6.376;2023-04-06T12:57:35;101551.16;;;13.42;37.09
55456;BME280;63021;52.836;6.376;2023-04-06T13:00:02;101557.06;;;13.45;37.84
55456;BME280;63021;52.836;6.376;2023-04-06T13:02:30;101530.09;;;13.29;38.12
55456;BME280;63021;52.836;6.376;2023-04-06T13:04:58;101536.88;;;13.23;37.59